createdAt,value
2022-07-28T00:00:17.457Z,22.85
2022-07-28T00:02:45.009Z,22.78
2022-07-28T00:05:12.639Z,22.73
2022-07-28T00:07:42.172Z,22.65
2022-07-28T00:10:10.085Z,22.65
2022-07-28T00:12:38.225Z,22.57
2022-07-28T00:15:08.938Z,22.57
2022-07-28T00:17:36.426Z,22.53
2022-07-28T00:20:07.931Z,22.52
2022-07-28T00:22:41.963Z,22.53
2022-07-28T00:25:10.488Z,22.54
2022-07-28T00:27:39.137Z,22.49
2022-07-28T00:30:09.099Z,22.41
2022-07-28T00:32:37.748Z,22.45
2022-07-28T00:35:08.160Z,22.43
2022-07-28T00:37:39.786Z,22.40
2022-07-28T00:40:09.285Z,22.42
2022-07-28T00:42:36.721Z,22.45
2022-07-28T00:45:04.986Z,22.51
2022-07-28T00:47:33.663Z,22.43
2022-07-28T00:50:03.174Z,22.37
2022-07-28T00:52:33.958Z,22.28
2022-07-28T00:55:05.574Z,22.25
2022-07-28T00:57:33.142Z,22.21
2022-07-28T01:00:01.306Z,22.21
2022-07-28T01:02:29.055Z,22.25
2022-07-28T01:04:56.680Z,22.23
2022-07-28T01:07:50.682Z,22.18
2022-07-28T01:10:40.940Z,22.17
2022-07-28T01:13:16.163Z,22.16
2022-07-28T01:16:03.250Z,22.17
2022-07-28T01:19:17.155Z,22.29
2022-07-28T01:21:47.530Z,22.20
2022-07-28T01:24:31.187Z,22.20
2022-07-28T01:27:04.812Z,22.20
2022-07-28T01:29:55.254Z,22.19
2022-07-28T01:32:28.823Z,22.30
2022-07-28T01:35:05.634Z,22.27
2022-07-28T01:37:40.537Z,22.27
2022-07-28T01:40:10.558Z,22.18
2022-07-28T01:42:49.234Z,22.13
2022-07-28T01:45:18.683Z,22.12
2022-07-28T01:47:49.038Z,22.16
2022-07-28T01:50:21.347Z,22.06
2022-07-28T01:52:51.348Z,22.02
2022-07-28T01:55:22.435Z,21.90
2022-07-28T01:57:53.396Z,21.90
2022-07-28T02:00:21.435Z,21.92
2022-07-28T02:02:51.220Z,21.93
2022-07-28T02:05:22.278Z,21.91
2022-07-28T02:07:51.754Z,21.88
2022-07-28T02:10:21.367Z,21.96
2022-07-28T02:12:53.160Z,22.06
2022-07-28T02:15:22.256Z,22.03
2022-07-28T02:17:53.353Z,22.03
2022-07-28T02:20:22.361Z,22.05
2022-07-28T02:22:53.425Z,22.01
2022-07-28T02:25:22.009Z,21.92
2022-07-28T02:28:17.096Z,21.88
2022-07-28T02:30:51.046Z,21.82
2022-07-28T02:33:35.646Z,21.81
2022-07-28T02:36:38.940Z,21.81
2022-07-28T02:39:17.085Z,21.87
2022-07-28T02:41:48.549Z,21.83
2022-07-28T02:44:21.923Z,21.80
2022-07-28T02:46:53.367Z,21.82
2022-07-28T02:49:30.366Z,21.82
2022-07-28T02:52:00.718Z,21.89
2022-07-28T02:54:31.106Z,21.87
2022-07-28T02:57:01.533Z,21.90
2022-07-28T02:59:30.272Z,21.91
2022-07-28T03:01:59.183Z,21.88
2022-07-28T03:04:46.208Z,21.99
2022-07-28T03:07:14.564Z,22.03
2022-07-28T03:09:45.883Z,22.04
2022-07-28T03:12:14.376Z,21.97
2022-07-28T03:14:42.184Z,21.96
2022-07-28T03:17:10.895Z,21.95
2022-07-28T03:19:38.775Z,21.92
2022-07-28T03:22:06.746Z,21.96
2022-07-28T03:24:42.280Z,21.97
2022-07-28T03:27:27.237Z,22.04
2022-07-28T03:30:15.529Z,22.05
2022-07-28T03:32:54.702Z,22.14
2022-07-28T03:35:22.652Z,22.18
2022-07-28T03:38:11.266Z,22.32
2022-07-28T03:40:46.067Z,22.30
2022-07-28T03:43:19.064Z,22.30
2022-07-28T03:45:48.008Z,22.32
2022-07-28T03:48:16.701Z,22.42
2022-07-28T03:50:44.397Z,22.46
2022-07-28T03:53:22.759Z,22.51
2022-07-28T03:55:51.386Z,22.70
2022-07-28T03:58:26.194Z,22.77
2022-07-28T04:00:58.207Z,22.75
2022-07-28T04:03:43.099Z,22.83
2022-07-28T04:06:15.725Z,22.84
2022-07-28T04:08:44.414Z,22.95
2022-07-28T04:11:11.967Z,22.98
2022-07-28T04:13:39.518Z,23.03
2022-07-28T04:16:08.211Z,23.02
2022-07-28T04:18:37.125Z,23.11
2022-07-28T04:21:05.226Z,23.19
2022-07-28T04:23:33.366Z,23.16
2022-07-28T04:26:01.389Z,23.20
2022-07-28T04:28:28.773Z,23.20
2022-07-28T04:30:56.320Z,23.32
2022-07-28T04:33:24.991Z,23.42
2022-07-28T04:35:53.508Z,23.50
2022-07-28T04:38:21.119Z,23.56
2022-07-28T04:40:48.875Z,23.63
2022-07-28T04:43:16.400Z,23.63
2022-07-28T04:45:53.922Z,23.65
2022-07-28T04:48:23.407Z,23.71
2022-07-28T04:50:53.150Z,23.74
2022-07-28T04:53:22.815Z,23.78
2022-07-28T04:55:53.474Z,23.82
2022-07-28T04:58:23.336Z,23.90
2022-07-28T05:00:51.854Z,23.92
2022-07-28T05:03:20.697Z,23.97
2022-07-28T05:05:54.175Z,24.06
2022-07-28T05:08:25.837Z,24.16
2022-07-28T05:10:57.963Z,24.22
2022-07-28T05:13:33.699Z,24.30
2022-07-28T05:16:03.702Z,24.38
2022-07-28T05:18:32.029Z,24.44
2022-07-28T05:20:59.571Z,24.50
2022-07-28T05:23:27.182Z,24.52
2022-07-28T05:25:54.651Z,24.61
2022-07-28T05:28:22.088Z,24.67
2022-07-28T05:30:49.715Z,24.78
2022-07-28T05:33:17.492Z,24.80
2022-07-28T05:35:52.651Z,24.92
2022-07-28T05:38:20.385Z,25.05
2022-07-28T05:40:48.919Z,25.09
2022-07-28T05:43:16.795Z,25.00
2022-07-28T05:45:45.364Z,25.07
2022-07-28T05:48:13.366Z,25.18
2022-07-28T05:50:41.262Z,25.31
2022-07-28T05:53:09.374Z,25.48
2022-07-28T05:55:36.923Z,25.68
2022-07-28T05:58:24.371Z,25.92
2022-07-28T06:00:52.110Z,26.19
2022-07-28T06:03:19.642Z,26.47
2022-07-28T06:06:13.786Z,26.73
2022-07-28T06:08:36.466Z,26.89
2022-07-28T06:11:10.026Z,27.08
2022-07-28T06:13:46.935Z,27.13
2022-07-28T06:16:16.621Z,27.23
2022-07-28T06:18:44.263Z,27.29
2022-07-28T06:21:11.709Z,27.35
2022-07-28T06:23:39.541Z,27.39
2022-07-28T06:26:07.216Z,27.48
2022-07-28T06:28:35.211Z,27.61
2022-07-28T06:31:02.781Z,27.65
2022-07-28T06:33:30.859Z,27.78
2022-07-28T06:35:58.501Z,27.75
2022-07-28T06:38:25.982Z,27.87
2022-07-28T06:40:53.503Z,27.99
2022-07-28T06:43:20.972Z,28.04
2022-07-28T06:45:48.419Z,28.14
2022-07-28T06:48:16.109Z,28.24
2022-07-28T06:50:43.802Z,28.36
2022-07-28T06:53:11.339Z,28.40
2022-07-28T06:55:39.341Z,28.47
2022-07-28T06:58:08.936Z,28.53
2022-07-28T07:00:36.624Z,28.56
2022-07-28T07:03:04.233Z,28.69
2022-07-28T07:05:32.538Z,28.83
2022-07-28T07:08:01.254Z,28.85
2022-07-28T07:10:29.208Z,28.88
2022-07-28T07:12:57.215Z,28.96
2022-07-28T07:15:29.080Z,29.17
2022-07-28T07:17:57.155Z,29.28
2022-07-28T07:20:24.661Z,29.14
2022-07-28T07:22:52.196Z,29.32
2022-07-28T07:25:20.533Z,29.49
2022-07-28T07:27:48.277Z,29.57
2022-07-28T07:30:17.348Z,29.47
2022-07-28T07:32:45.241Z,29.50
2022-07-28T07:35:13.533Z,29.69
2022-07-28T07:37:42.245Z,29.56
2022-07-28T07:40:10.224Z,29.73
2022-07-28T07:42:38.199Z,29.84
2022-07-28T07:45:06.191Z,29.85
2022-07-28T07:47:33.890Z,29.92
2022-07-28T07:50:04.144Z,29.98
2022-07-28T07:52:32.371Z,30.18
2022-07-28T07:55:00.621Z,30.30
2022-07-28T07:57:28.178Z,30.50
2022-07-28T07:59:55.882Z,30.52
2022-07-28T08:02:24.609Z,30.54
2022-07-28T08:04:52.069Z,30.74
2022-07-28T08:07:22.079Z,30.87
2022-07-28T08:09:50.145Z,30.99
2022-07-28T08:12:25.047Z,31.13
2022-07-28T08:14:56.261Z,31.23
2022-07-28T08:17:26.231Z,31.39
2022-07-28T08:19:54.784Z,31.54
2022-07-28T08:22:23.244Z,31.63
2022-07-28T08:24:51.005Z,31.73
2022-07-28T08:27:19.337Z,31.80
2022-07-28T08:29:47.032Z,31.75
2022-07-28T08:32:14.500Z,31.92
2022-07-28T08:34:42.203Z,31.97
2022-07-28T08:37:09.601Z,32.11
2022-07-28T08:39:37.323Z,32.12
2022-07-28T08:42:09.380Z,32.31
2022-07-28T08:44:47.397Z,32.33
2022-07-28T08:47:16.382Z,32.17
2022-07-28T08:49:44.432Z,32.31
2022-07-28T08:52:14.439Z,32.40
2022-07-28T08:54:47.311Z,32.45
2022-07-28T08:57:22.723Z,32.58
2022-07-28T08:59:50.484Z,32.92
2022-07-28T09:02:19.428Z,32.90
2022-07-28T09:04:48.350Z,33.05
2022-07-28T09:07:16.798Z,33.16
2022-07-28T09:09:47.851Z,33.22
2022-07-28T09:12:15.390Z,33.42
2022-07-28T09:14:43.251Z,33.56
2022-07-28T09:17:11.045Z,33.70
2022-07-28T09:19:42.106Z,33.83
2022-07-28T09:22:13.457Z,33.47
2022-07-28T09:24:44.954Z,33.78
2022-07-28T09:27:15.783Z,33.73
2022-07-28T09:29:49.404Z,33.87
2022-07-28T09:32:20.071Z,33.97
2022-07-28T09:34:51.618Z,34.09
2022-07-28T09:37:27.146Z,34.06
2022-07-28T09:40:00.399Z,34.24
2022-07-28T09:42:46.736Z,34.30
2022-07-28T09:45:23.341Z,34.47
2022-07-28T09:48:10.243Z,34.71
2022-07-28T09:50:39.682Z,34.92
2022-07-28T09:53:28.325Z,35.12
2022-07-28T09:56:01.472Z,35.16
2022-07-28T09:58:30.339Z,35.22
2022-07-28T10:01:13.299Z,35.28
2022-07-28T10:03:43.187Z,35.34
2022-07-28T10:06:26.189Z,35.63
2022-07-28T10:08:55.441Z,35.69
2022-07-28T10:11:26.935Z,35.40
2022-07-28T10:14:06.257Z,35.71
2022-07-28T10:16:43.536Z,35.95
2022-07-28T10:19:11.098Z,35.97
2022-07-28T10:21:44.445Z,36.15
2022-07-28T10:24:21.862Z,36.29
2022-07-28T10:26:50.903Z,36.26
2022-07-28T10:29:21.897Z,36.47
2022-07-28T10:31:49.323Z,36.61
2022-07-28T10:34:51.327Z,36.75
2022-07-28T10:37:27.854Z,36.43
2022-07-28T10:40:10.449Z,36.56
2022-07-28T10:42:41.747Z,36.17
2022-07-28T10:45:13.536Z,36.51
2022-07-28T10:47:41.647Z,36.49
2022-07-28T10:50:09.812Z,36.57
2022-07-28T10:52:49.909Z,36.53
2022-07-28T10:55:57.916Z,36.36
2022-07-28T10:58:31.429Z,36.22
2022-07-28T11:01:05.495Z,36.42
2022-07-28T11:03:47.106Z,35.91
2022-07-28T11:06:40.355Z,36.07
2022-07-28T11:09:16.780Z,36.07
2022-07-28T11:11:47.597Z,35.93
2022-07-28T11:14:26.095Z,35.83
2022-07-28T11:17:04.075Z,35.95
2022-07-28T11:20:06.825Z,35.76
2022-07-28T11:22:38.327Z,35.57
2022-07-28T11:25:18.889Z,35.74
2022-07-28T11:27:50.664Z,35.68
2022-07-28T11:30:36.182Z,35.73
2022-07-28T11:33:06.093Z,36.10
2022-07-28T11:35:55.260Z,36.14
2022-07-28T11:38:23.582Z,36.15
2022-07-28T11:40:54.636Z,36.01
2022-07-28T11:43:37.416Z,36.21
2022-07-28T11:46:07.651Z,36.19
2022-07-28T11:48:40.101Z,36.40
2022-07-28T11:51:12.205Z,36.58
2022-07-28T11:53:42.184Z,36.31
2022-07-28T11:56:13.746Z,36.75
2022-07-28T11:58:44.079Z,36.90
2022-07-28T12:01:18.319Z,37.13
2022-07-28T12:03:55.494Z,37.15
2022-07-28T12:06:37.257Z,37.57
2022-07-28T12:09:09.323Z,37.55
2022-07-28T12:11:41.557Z,37.60
2022-07-28T12:14:15.920Z,37.52
2022-07-28T12:16:46.013Z,38.16
2022-07-28T12:22:15.606Z,38.74
2022-07-28T12:24:44.722Z,39.00
2022-07-28T12:27:15.367Z,39.26
2022-07-28T12:29:55.625Z,39.03
2022-07-28T12:32:31.238Z,39.27
2022-07-28T12:34:59.492Z,39.33
2022-07-28T12:37:28.458Z,39.64
2022-07-28T12:39:55.988Z,38.48
2022-07-28T12:42:25.155Z,39.55
2022-07-28T12:45:01.498Z,39.20
2022-07-28T12:47:28.980Z,38.85
2022-07-28T12:50:19.256Z,39.29
2022-07-28T12:53:05.363Z,39.26
2022-07-28T12:55:33.573Z,39.65
2022-07-28T12:58:01.456Z,39.73
2022-07-28T13:00:32.072Z,40.01
2022-07-28T13:03:01.426Z,39.77
2022-07-28T13:05:56.629Z,40.13
2022-07-28T13:08:27.288Z,39.88
2022-07-28T13:10:58.761Z,39.71
2022-07-28T13:13:27.378Z,40.32
2022-07-28T13:16:21.182Z,39.82
2022-07-28T13:19:02.372Z,39.80
2022-07-28T13:21:56.656Z,40.15
2022-07-28T13:24:28.357Z,40.16
2022-07-28T13:26:57.373Z,40.15
2022-07-28T13:29:25.597Z,40.43
2022-07-28T13:31:55.026Z,40.29
2022-07-28T13:34:22.725Z,40.79
2022-07-28T13:36:50.405Z,40.74
2022-07-28T13:39:18.247Z,40.38
2022-07-28T13:41:57.173Z,40.75
2022-07-28T13:44:29.995Z,40.82
2022-07-28T13:46:59.588Z,40.78
2022-07-28T13:49:29.129Z,40.75
2022-07-28T13:51:57.395Z,40.17
2022-07-28T13:54:25.881Z,39.83
2022-07-28T13:57:15.088Z,40.10
2022-07-28T13:59:46.412Z,39.84
2022-07-28T14:02:15.705Z,40.22
2022-07-28T14:04:45.934Z,40.24
2022-07-28T14:07:20.747Z,40.21
2022-07-28T14:09:50.912Z,40.02
2022-07-28T14:12:18.877Z,39.60
2022-07-28T14:14:48.728Z,39.35
2022-07-28T14:20:12.222Z,38.30
2022-07-28T14:22:46.595Z,37.93
2022-07-28T14:25:20.561Z,37.40
2022-07-28T14:27:50.578Z,37.29
2022-07-28T14:30:19.439Z,36.87
2022-07-28T14:32:47.097Z,36.64
2022-07-28T14:35:15.313Z,35.89
2022-07-28T14:40:33.699Z,35.75
2022-07-28T14:43:07.048Z,35.49
2022-07-28T14:46:12.351Z,35.42
2022-07-28T14:48:23.536Z,35.02
2022-07-28T14:50:52.578Z,34.86
2022-07-28T14:53:22.314Z,34.67
2022-07-28T14:55:49.747Z,34.58
2022-07-28T14:58:20.484Z,34.24
2022-07-28T15:00:48.705Z,34.12
2022-07-28T15:03:17.165Z,34.10
2022-07-28T15:05:47.112Z,34.00
2022-07-28T15:08:14.695Z,33.89
2022-07-28T15:10:45.727Z,33.71
2022-07-28T15:13:16.655Z,33.69
2022-07-28T15:15:44.889Z,33.50
2022-07-28T15:18:12.717Z,33.49
2022-07-28T15:20:40.813Z,33.41
2022-07-28T15:23:10.400Z,33.35
2022-07-28T15:25:38.378Z,33.25
2022-07-28T15:28:05.995Z,33.11
2022-07-28T15:30:33.538Z,33.09
2022-07-28T15:33:01.903Z,32.73
2022-07-28T15:35:58.113Z,32.74
2022-07-28T15:38:18.351Z,32.65
2022-07-28T15:40:48.189Z,32.54
2022-07-28T15:43:18.359Z,32.43
2022-07-28T15:45:54.715Z,32.49
2022-07-28T15:48:23.414Z,32.48
2022-07-28T15:50:51.467Z,32.39
2022-07-28T15:53:19.747Z,32.36
2022-07-28T15:55:50.982Z,32.25
2022-07-28T15:58:20.180Z,32.25
2022-07-28T16:00:51.298Z,32.16
2022-07-28T16:03:19.082Z,32.07
2022-07-28T16:05:49.690Z,32.10
2022-07-28T16:08:22.732Z,31.93
2022-07-28T16:10:52.902Z,31.97
2022-07-28T16:13:36.130Z,31.91
2022-07-28T16:16:10.774Z,31.80
2022-07-28T16:18:41.966Z,31.72
2022-07-28T16:21:10.465Z,31.61
2022-07-28T16:23:38.590Z,31.58
2022-07-28T16:26:09.427Z,31.49
2022-07-28T16:28:37.289Z,31.46
2022-07-28T16:31:04.949Z,31.40
2022-07-28T16:33:34.747Z,31.32
2022-07-28T16:36:02.821Z,31.31
2022-07-28T16:38:30.816Z,31.22
2022-07-28T16:40:58.336Z,31.18
2022-07-28T16:43:25.806Z,31.15
2022-07-28T16:45:53.343Z,31.09
2022-07-28T16:48:21.017Z,30.95
2022-07-28T16:50:48.653Z,30.95
2022-07-28T16:53:16.517Z,30.90
2022-07-28T16:55:44.640Z,30.78
2022-07-28T16:58:12.223Z,30.73
2022-07-28T17:00:39.776Z,30.73
2022-07-28T17:03:11.231Z,30.65
2022-07-28T17:05:38.902Z,30.68
2022-07-28T17:08:07.149Z,30.66
2022-07-28T17:10:34.785Z,30.66
2022-07-28T17:13:03.186Z,30.32
2022-07-28T17:15:31.708Z,30.25
2022-07-28T17:17:59.849Z,30.23
2022-07-28T17:20:28.817Z,30.19
2022-07-28T17:22:57.994Z,30.17
2022-07-28T17:25:52.302Z,30.07
2022-07-28T17:28:14.506Z,29.96
2022-07-28T17:30:42.905Z,29.88
2022-07-28T17:33:10.429Z,29.87
2022-07-28T17:35:40.538Z,29.77
2022-07-28T17:38:09.383Z,29.71
2022-07-28T17:40:39.715Z,29.60
2022-07-28T17:43:07.212Z,29.54
2022-07-28T17:45:36.627Z,29.50
2022-07-28T17:48:05.030Z,29.38
2022-07-28T17:50:32.603Z,29.44
2022-07-28T17:53:01.927Z,29.52
2022-07-28T17:55:57.572Z,29.46
2022-07-28T17:58:32.276Z,29.43
2022-07-28T18:01:09.674Z,29.43
2022-07-28T18:03:58.726Z,29.43
2022-07-28T18:06:36.487Z,29.40
2022-07-28T18:09:07.995Z,29.37
2022-07-28T18:11:57.245Z,29.32
2022-07-28T18:14:29.963Z,29.25
2022-07-28T18:16:58.641Z,29.27
2022-07-28T18:19:30.010Z,29.27
2022-07-28T18:21:58.374Z,29.20
2022-07-28T18:24:26.489Z,29.18
2022-07-28T18:26:54.222Z,29.14
2022-07-28T18:29:22.427Z,28.93
2022-07-28T18:31:52.362Z,28.86
2022-07-28T18:34:20.813Z,28.69
2022-07-28T18:36:52.328Z,28.63
2022-07-28T18:39:19.798Z,28.48
2022-07-28T18:41:48.158Z,28.38
2022-07-28T18:44:17.880Z,28.32
2022-07-28T18:46:46.577Z,28.22
2022-07-28T18:49:15.068Z,28.21
2022-07-28T18:51:45.169Z,28.18
2022-07-28T18:54:18.613Z,28.22
2022-07-28T18:56:47.759Z,28.08
2022-07-28T19:02:04.367Z,27.99
2022-07-28T19:04:33.444Z,27.98
2022-07-28T19:07:00.886Z,27.93
2022-07-28T19:09:28.965Z,27.92
2022-07-28T19:12:05.002Z,27.87
2022-07-28T19:14:33.899Z,27.90
2022-07-28T19:17:02.049Z,27.67
2022-07-28T19:19:31.689Z,27.68
2022-07-28T19:22:00.323Z,27.66
2022-07-28T19:24:28.660Z,27.59
2022-07-28T19:26:56.156Z,27.56
2022-07-28T19:29:27.479Z,27.57
2022-07-28T19:31:55.116Z,27.55
2022-07-28T19:34:22.847Z,27.49
2022-07-28T19:36:51.607Z,27.47
2022-07-28T19:39:19.935Z,27.49
2022-07-28T19:41:48.197Z,27.54
2022-07-28T19:44:16.121Z,27.40
2022-07-28T19:46:44.877Z,27.36
2022-07-28T19:49:17.009Z,27.29
2022-07-28T19:51:45.069Z,27.38
2022-07-28T19:54:15.416Z,27.27
2022-07-28T19:56:43.365Z,27.21
2022-07-28T19:59:10.767Z,27.13
2022-07-28T20:01:45.938Z,27.11
2022-07-28T20:04:16.203Z,27.01
2022-07-28T20:06:44.174Z,26.89
2022-07-28T20:09:17.792Z,26.97
2022-07-28T20:11:50.528Z,26.91
2022-07-28T20:14:20.611Z,26.85
2022-07-28T20:16:48.052Z,26.78
2022-07-28T20:19:16.927Z,26.74
2022-07-28T20:21:44.480Z,26.58
2022-07-28T20:24:12.001Z,26.54
2022-07-28T20:26:39.682Z,26.47
2022-07-28T20:29:07.138Z,26.47
2022-07-28T20:31:36.947Z,26.49
2022-07-28T20:34:07.911Z,26.39
2022-07-28T20:36:35.753Z,26.34
2022-07-28T20:39:21.076Z,26.38
2022-07-28T20:41:52.034Z,26.32
2022-07-28T20:44:29.190Z,26.35
2022-07-28T20:47:02.495Z,26.34
2022-07-28T20:49:30.268Z,26.28
2022-07-28T20:51:59.668Z,26.26
2022-07-28T20:54:27.404Z,26.25
2022-07-28T20:56:55.649Z,26.25
2022-07-28T20:59:27.631Z,26.21
2022-07-28T21:01:56.881Z,26.13
2022-07-28T21:04:26.517Z,26.08
2022-07-28T21:07:01.734Z,26.03
2022-07-28T21:09:29.977Z,25.98
2022-07-28T21:12:03.058Z,25.96
2022-07-28T21:14:32.758Z,25.99
2022-07-28T21:17:00.353Z,26.00
2022-07-28T21:19:27.895Z,26.00
2022-07-28T21:21:55.704Z,25.93
2022-07-28T21:24:23.985Z,25.94
2022-07-28T21:26:52.077Z,25.84
2022-07-28T21:32:03.703Z,25.89
2022-07-28T21:34:34.548Z,25.86
2022-07-28T21:37:04.914Z,25.85
2022-07-28T21:39:35.930Z,25.83
2022-07-28T21:42:07.703Z,25.86
2022-07-28T21:44:37.866Z,25.77
2022-07-28T21:47:06.490Z,25.68
2022-07-28T21:49:34.244Z,25.69
2022-07-28T21:52:03.192Z,25.65
2022-07-28T21:54:30.677Z,25.54
2022-07-28T21:56:58.191Z,25.59
2022-07-28T21:59:26.571Z,25.59
2022-07-28T22:01:54.374Z,25.64
2022-07-28T22:04:22.404Z,25.56
2022-07-28T22:06:50.475Z,25.52
2022-07-28T22:09:18.393Z,25.44
2022-07-28T22:11:48.445Z,25.48
2022-07-28T22:14:16.252Z,25.45
2022-07-28T22:16:45.030Z,25.43
2022-07-28T22:19:12.862Z,25.29
2022-07-28T22:21:40.325Z,25.33
2022-07-28T22:24:08.339Z,25.28
2022-07-28T22:26:36.833Z,25.24
2022-07-28T22:29:05.230Z,25.29
2022-07-28T22:31:32.746Z,25.17
2022-07-28T22:34:00.714Z,25.13
2022-07-28T22:36:28.258Z,25.26
2022-07-28T22:38:56.926Z,25.30
2022-07-28T22:41:24.813Z,25.29
2022-07-28T22:43:54.766Z,25.20
2022-07-28T22:46:22.946Z,25.32
2022-07-28T22:48:50.564Z,25.26
2022-07-28T22:51:18.250Z,25.18
2022-07-28T22:53:45.755Z,25.18
2022-07-28T22:56:14.078Z,25.21
2022-07-28T22:58:41.571Z,25.11
2022-07-28T23:01:09.736Z,25.17
2022-07-28T23:03:38.348Z,25.08
2022-07-28T23:06:06.848Z,25.10
2022-07-28T23:08:34.372Z,25.06
2022-07-28T23:11:03.009Z,25.14
2022-07-28T23:13:30.743Z,25.09
2022-07-28T23:16:02.252Z,25.18
2022-07-28T23:18:30.499Z,25.21
2022-07-28T23:20:59.171Z,25.15
2022-07-28T23:23:27.039Z,25.03
2022-07-28T23:25:54.549Z,25.08
2022-07-28T23:28:21.906Z,25.13
2022-07-28T23:30:52.071Z,25.22
2022-07-28T23:33:56.158Z,25.23
2022-07-28T23:36:07.257Z,25.21
2022-07-28T23:38:42.608Z,25.10
2022-07-28T23:41:15.204Z,25.19
2022-07-28T23:43:43.111Z,25.17
2022-07-28T23:46:10.827Z,25.09
2022-07-28T23:48:39.036Z,25.17
2022-07-28T23:51:06.535Z,25.12
2022-07-28T23:53:41.208Z,24.96
2022-07-28T23:56:09.132Z,25.03
2022-07-28T23:58:36.791Z,25.03
